CheckWX is a tool to help pilots better visualize weather data.  It is not intended as a substitute for an official pre-flight weather briefing.

08:39:14 UTC

EGBB METAR
Birmingham International Airport
Birmingham, United Kingdom
Current

19 mins ago

EGBB 170820Z VRB03KT CAVOK 20/13 Q1015
Observed
Jul-17 @ 08:20 UTC
Wind
  • Variable at 3 KTS
Visibility
10,000+ meters
Flight Rules
VFR
Cloud Levels
  • Clear skies
Temperature
20°C / 68°F
Dewpoint
13°C / 55°F
Humidity
64%
Altimeter
29.97" Hg
Pressure
1014.92 hPa
Previous

49 mins ago

EGBB 170750Z VRB02KT CAVOK 20/13 Q1015
Observed
Jul-17 @ 07:50 UTC
Wind
  • Variable at 2 KTS
Visibility
10,000+ meters
Flight Rules
VFR
Cloud Levels
  • Clear skies
Temperature
20°C / 68°F
Dewpoint
13°C / 55°F
Humidity
64%
Altimeter
29.97" Hg
Pressure
1014.92 hPa
Previous

1 hour ago

EGBB 170720Z 32004KT 290V360 CAVOK 18/13 Q1015
Observed
Jul-17 @ 07:20 UTC
Wind
  • 320° at 4 KTS
Visibility
10,000+ meters
Flight Rules
VFR
Cloud Levels
  • Clear skies
Temperature
18°C / 64°F
Dewpoint
13°C / 55°F
Humidity
73%
Altimeter
29.97" Hg
Pressure
1014.92 hPa